sensor_id;sensor_type;location;lat;lon;timestamp;P1;durP1;ratioP1;P2;durP2;ratioP2
62572;SDS011;48626;51.678;5.806;2023-09-18T00:01:11;15.55;;;11.20;;
62572;SDS011;48626;51.678;5.806;2023-09-18T00:03:37;19.60;;;11.88;;
62572;SDS011;48626;51.678;5.806;2023-09-18T00:06:03;17.10;;;11.48;;
62572;SDS011;48626;51.678;5.806;2023-09-18T00:08:28;18.10;;;11.52;;
62572;SDS011;48626;51.678;5.806;2023-09-18T00:10:54;15.52;;;11.65;;
62572;SDS011;48626;51.678;5.806;2023-09-18T00:13:20;16.98;;;10.38;;
62572;SDS011;48626;51.678;5.806;2023-09-18T00:15:47;16.42;;;10.65;;
62572;SDS011;48626;51.678;5.806;2023-09-18T00:18:13;19.60;;;11.50;;
62572;SDS011;48626;51.678;5.806;2023-09-18T00:20:40;15.50;;;11.00;;
62572;SDS011;48626;51.678;5.806;2023-09-18T00:23:06;14.18;;;10.18;;
62572;SDS011;48626;51.678;5.806;2023-09-18T00:25:33;18.80;;;10.82;;
62572;SDS011;48626;51.678;5.806;2023-09-18T00:27:58;17.48;;;10.85;;
62572;SDS011;48626;51.678;5.806;2023-09-18T00:30:24;17.52;;;10.73;;
62572;SDS011;48626;51.678;5.806;2023-09-18T00:32:50;16.52;;;10.65;;
62572;SDS011;48626;51.678;5.806;2023-09-18T00:35:15;16.58;;;10.35;;
62572;SDS011;48626;51.678;5.806;2023-09-18T00:37:41;16.15;;;11.43;;
62572;SDS011;48626;51.678;5.806;2023-09-18T00:40:08;15.63;;;10.32;;
62572;SDS011;48626;51.678;5.806;2023-09-18T00:42:34;16.90;;;10.95;;
62572;SDS011;48626;51.678;5.806;2023-09-18T00:44:59;17.33;;;9.80;;
62572;SDS011;48626;51.678;5.806;2023-09-18T00:47:25;22.73;;;10.23;;
62572;SDS011;48626;51.678;5.806;2023-09-18T00:49:51;15.70;;;10.15;;
62572;SDS011;48626;51.678;5.806;2023-09-18T00:52:17;18.17;;;10.05;;
62572;SDS011;48626;51.678;5.806;2023-09-18T00:54:46;15.02;;;9.80;;
62572;SDS011;48626;51.678;5.806;2023-09-18T00:57:13;14.35;;;10.00;;
62572;SDS011;48626;51.678;5.806;2023-09-18T00:59:39;15.02;;;9.77;;
62572;SDS011;48626;51.678;5.806;2023-09-18T01:02:05;19.50;;;10.60;;
62572;SDS011;48626;51.678;5.806;2023-09-18T01:04:31;17.33;;;9.93;;
62572;SDS011;48626;51.678;5.806;2023-09-18T01:07:01;17.35;;;9.85;;
62572;SDS011;48626;51.678;5.806;2023-09-18T01:09:29;15.75;;;10.60;;
62572;SDS011;48626;51.678;5.806;2023-09-18T01:17:38;17.02;;;9.48;;
62572;SDS011;48626;51.678;5.806;2023-09-18T01:20:05;16.42;;;9.75;;
62572;SDS011;48626;51.678;5.806;2023-09-18T01:22:34;15.63;;;9.18;;
62572;SDS011;48626;51.678;5.806;2023-09-18T01:25:00;15.68;;;9.35;;
62572;SDS011;48626;51.678;5.806;2023-09-18T01:27:25;15.50;;;9.25;;
62572;SDS011;48626;51.678;5.806;2023-09-18T01:29:51;14.55;;;8.80;;
62572;SDS011;48626;51.678;5.806;2023-09-18T01:32:18;14.20;;;9.15;;
62572;SDS011;48626;51.678;5.806;2023-09-18T01:34:51;15.85;;;8.88;;
62572;SDS011;48626;51.678;5.806;2023-09-18T01:37:20;15.00;;;9.30;;
62572;SDS011;48626;51.678;5.806;2023-09-18T01:39:49;15.43;;;8.80;;
62572;SDS011;48626;51.678;5.806;2023-09-18T01:42:16;11.25;;;8.02;;
62572;SDS011;48626;51.678;5.806;2023-09-18T01:44:42;13.55;;;8.98;;
62572;SDS011;48626;51.678;5.806;2023-09-18T01:47:11;22.30;;;9.10;;
62572;SDS011;48626;51.678;5.806;2023-09-18T01:49:40;11.60;;;8.73;;
62572;SDS011;48626;51.678;5.806;2023-09-18T01:52:07;14.85;;;8.93;;
62572;SDS011;48626;51.678;5.806;2023-09-18T01:54:34;12.60;;;8.05;;
62572;SDS011;48626;51.678;5.806;2023-09-18T01:57:00;13.68;;;8.38;;
62572;SDS011;48626;51.678;5.806;2023-09-18T01:59:26;13.80;;;8.00;;
62572;SDS011;48626;51.678;5.806;2023-09-18T02:01:52;13.02;;;8.20;;
62572;SDS011;48626;51.678;5.806;2023-09-18T02:04:21;13.18;;;7.80;;
62572;SDS011;48626;51.678;5.806;2023-09-18T02:06:48;14.43;;;7.97;;
62572;SDS011;48626;51.678;5.806;2023-09-18T02:09:15;16.55;;;7.43;;
62572;SDS011;48626;51.678;5.806;2023-09-18T02:11:41;14.55;;;7.63;;
62572;SDS011;48626;51.678;5.806;2023-09-18T02:14:08;10.98;;;7.75;;
62572;SDS011;48626;51.678;5.806;2023-09-18T02:16:39;12.15;;;7.00;;
62572;SDS011;48626;51.678;5.806;2023-09-18T02:19:09;10.30;;;7.03;;
62572;SDS011;48626;51.678;5.806;2023-09-18T02:21:35;10.32;;;7.05;;
62572;SDS011;48626;51.678;5.806;2023-09-18T02:24:01;9.05;;;6.72;;
62572;SDS011;48626;51.678;5.806;2023-09-18T02:26:28;10.98;;;7.07;;
62572;SDS011;48626;51.678;5.806;2023-09-18T02:28:54;12.00;;;6.70;;
62572;SDS011;48626;51.678;5.806;2023-09-18T02:31:21;11.38;;;6.88;;
62572;SDS011;48626;51.678;5.806;2023-09-18T02:33:48;11.00;;;6.75;;
62572;SDS011;48626;51.678;5.806;2023-09-18T02:36:13;11.38;;;7.05;;
62572;SDS011;48626;51.678;5.806;2023-09-18T02:38:39;10.77;;;6.25;;
62572;SDS011;48626;51.678;5.806;2023-09-18T02:41:05;16.17;;;6.60;;
62572;SDS011;48626;51.678;5.806;2023-09-18T02:43:30;12.57;;;6.80;;
62572;SDS011;48626;51.678;5.806;2023-09-18T02:45:56;14.65;;;6.65;;
62572;SDS011;48626;51.678;5.806;2023-09-18T02:48:22;14.95;;;6.95;;
62572;SDS011;48626;51.678;5.806;2023-09-18T02:50:47;11.18;;;6.43;;
62572;SDS011;48626;51.678;5.806;2023-09-18T02:53:22;10.15;;;6.13;;
62572;SDS011;48626;51.678;5.806;2023-09-18T02:55:50;9.68;;;6.60;;
62572;SDS011;48626;51.678;5.806;2023-09-18T02:58:17;11.27;;;6.00;;
62572;SDS011;48626;51.678;5.806;2023-09-18T03:00:44;11.77;;;6.78;;
62572;SDS011;48626;51.678;5.806;2023-09-18T03:03:11;11.60;;;6.28;;
62572;SDS011;48626;51.678;5.806;2023-09-18T03:05:38;9.63;;;6.20;;
62572;SDS011;48626;51.678;5.806;2023-09-18T03:08:04;9.50;;;6.45;;
62572;SDS011;48626;51.678;5.806;2023-09-18T03:10:37;11.25;;;7.07;;
62572;SDS011;48626;51.678;5.806;2023-09-18T03:13:05;9.70;;;6.43;;
62572;SDS011;48626;51.678;5.806;2023-09-18T03:15:31;12.32;;;6.57;;
62572;SDS011;48626;51.678;5.806;2023-09-18T03:17:58;13.82;;;7.43;;
62572;SDS011;48626;51.678;5.806;2023-09-18T03:20:27;9.23;;;6.47;;
62572;SDS011;48626;51.678;5.806;2023-09-18T03:22:54;11.93;;;6.68;;
62572;SDS011;48626;51.678;5.806;2023-09-18T03:25:21;11.68;;;6.60;;
62572;SDS011;48626;51.678;5.806;2023-09-18T03:27:51;12.82;;;6.18;;
62572;SDS011;48626;51.678;5.806;2023-09-18T03:32:44;10.82;;;6.00;;
62572;SDS011;48626;51.678;5.806;2023-09-18T03:35:10;12.60;;;5.47;;
62572;SDS011;48626;51.678;5.806;2023-09-18T03:37:43;8.27;;;4.90;;
62572;SDS011;48626;51.678;5.806;2023-09-18T03:40:12;11.75;;;5.53;;
62572;SDS011;48626;51.678;5.806;2023-09-18T03:42:38;9.52;;;5.43;;
62572;SDS011;48626;51.678;5.806;2023-09-18T03:45:07;13.18;;;5.57;;
62572;SDS011;48626;51.678;5.806;2023-09-18T03:47:34;9.20;;;5.22;;
62572;SDS011;48626;51.678;5.806;2023-09-18T03:50:03;9.45;;;5.63;;
62572;SDS011;48626;51.678;5.806;2023-09-18T03:52:29;14.68;;;5.97;;
62572;SDS011;48626;51.678;5.806;2023-09-18T03:54:55;10.60;;;5.38;;
62572;SDS011;48626;51.678;5.806;2023-09-18T03:57:20;11.32;;;5.00;;
62572;SDS011;48626;51.678;5.806;2023-09-18T03:59:46;12.50;;;5.22;;
62572;SDS011;48626;51.678;5.806;2023-09-18T04:02:12;11.40;;;4.93;;
62572;SDS011;48626;51.678;5.806;2023-09-18T04:04:37;10.55;;;4.75;;
62572;SDS011;48626;51.678;5.806;2023-09-18T04:07:06;10.48;;;5.15;;
62572;SDS011;48626;51.678;5.806;2023-09-18T04:09:33;10.85;;;4.85;;
62572;SDS011;48626;51.678;5.806;2023-09-18T04:12:03;8.63;;;4.38;;
62572;SDS011;48626;51.678;5.806;2023-09-18T04:14:32;12.23;;;4.85;;
62572;SDS011;48626;51.678;5.806;2023-09-18T04:16:58;8.90;;;4.68;;
62572;SDS011;48626;51.678;5.806;2023-09-18T04:19:25;10.10;;;4.53;;
62572;SDS011;48626;51.678;5.806;2023-09-18T04:21:51;11.75;;;4.65;;
62572;SDS011;48626;51.678;5.806;2023-09-18T04:24:16;9.38;;;4.43;;
62572;SDS011;48626;51.678;5.806;2023-09-18T04:26:42;7.93;;;4.28;;
62572;SDS011;48626;51.678;5.806;2023-09-18T04:29:08;10.95;;;4.53;;
62572;SDS011;48626;51.678;5.806;2023-09-18T04:31:33;6.93;;;4.32;;
62572;SDS011;48626;51.678;5.806;2023-09-18T04:33:59;9.98;;;4.10;;
62572;SDS011;48626;51.678;5.806;2023-09-18T04:36:25;12.68;;;4.35;;
62572;SDS011;48626;51.678;5.806;2023-09-18T04:38:51;9.60;;;4.13;;
62572;SDS011;48626;51.678;5.806;2023-09-18T04:41:16;8.10;;;4.43;;
62572;SDS011;48626;51.678;5.806;2023-09-18T04:43:42;10.32;;;4.47;;
62572;SDS011;48626;51.678;5.806;2023-09-18T04:46:08;6.78;;;3.80;;
62572;SDS011;48626;51.678;5.806;2023-09-18T04:48:34;13.00;;;4.50;;
62572;SDS011;48626;51.678;5.806;2023-09-18T04:51:00;9.80;;;4.40;;
62572;SDS011;48626;51.678;5.806;2023-09-18T04:53:29;10.10;;;4.40;;
62572;SDS011;48626;51.678;5.806;2023-09-18T04:55:55;11.88;;;4.05;;
62572;SDS011;48626;51.678;5.806;2023-09-18T04:58:21;9.23;;;4.47;;
62572;SDS011;48626;51.678;5.806;2023-09-18T05:00:52;11.52;;;5.00;;
62572;SDS011;48626;51.678;5.806;2023-09-18T05:03:22;9.48;;;4.28;;
62572;SDS011;48626;51.678;5.806;2023-09-18T05:05:48;13.80;;;5.13;;
62572;SDS011;48626;51.678;5.806;2023-09-18T05:08:13;14.18;;;4.70;;
62572;SDS011;48626;51.678;5.806;2023-09-18T05:10:39;7.22;;;4.07;;
62572;SDS011;48626;51.678;5.806;2023-09-18T05:13:05;6.38;;;4.10;;
62572;SDS011;48626;51.678;5.806;2023-09-18T05:15:31;9.50;;;4.07;;
62572;SDS011;48626;51.678;5.806;2023-09-18T05:17:58;13.68;;;4.50;;
62572;SDS011;48626;51.678;5.806;2023-09-18T05:20:25;7.40;;;4.10;;
62572;SDS011;48626;51.678;5.806;2023-09-18T05:22:53;10.30;;;4.53;;
62572;SDS011;48626;51.678;5.806;2023-09-18T05:25:19;6.18;;;3.70;;
62572;SDS011;48626;51.678;5.806;2023-09-18T05:27:50;7.10;;;3.95;;
62572;SDS011;48626;51.678;5.806;2023-09-18T05:30:24;6.03;;;3.90;;
62572;SDS011;48626;51.678;5.806;2023-09-18T05:32:52;9.00;;;4.07;;
62572;SDS011;48626;51.678;5.806;2023-09-18T05:35:18;7.18;;;4.00;;
62572;SDS011;48626;51.678;5.806;2023-09-18T05:37:44;5.68;;;3.60;;
62572;SDS011;48626;51.678;5.806;2023-09-18T05:40:10;9.80;;;4.22;;
62572;SDS011;48626;51.678;5.806;2023-09-18T05:42:37;6.07;;;3.90;;
62572;SDS011;48626;51.678;5.806;2023-09-18T05:45:03;14.55;;;4.18;;
62572;SDS011;48626;51.678;5.806;2023-09-18T05:47:30;9.48;;;3.88;;
62572;SDS011;48626;51.678;5.806;2023-09-18T05:49:57;6.03;;;3.67;;
62572;SDS011;48626;51.678;5.806;2023-09-18T05:52:23;5.22;;;3.70;;
62572;SDS011;48626;51.678;5.806;2023-09-18T05:54:50;8.52;;;3.47;;
62572;SDS011;48626;51.678;5.806;2023-09-18T05:57:15;3.55;;;2.83;;
62572;SDS011;48626;51.678;5.806;2023-09-18T05:59:42;7.38;;;2.88;;
62572;SDS011;48626;51.678;5.806;2023-09-18T06:02:11;7.13;;;2.88;;
62572;SDS011;48626;51.678;5.806;2023-09-18T06:04:37;8.45;;;2.78;;
62572;SDS011;48626;51.678;5.806;2023-09-18T06:07:03;6.38;;;2.60;;
62572;SDS011;48626;51.678;5.806;2023-09-18T06:09:29;6.10;;;3.08;;
62572;SDS011;48626;51.678;5.806;2023-09-18T06:11:55;6.68;;;2.60;;
62572;SDS011;48626;51.678;5.806;2023-09-18T06:14:20;4.60;;;2.45;;
62572;SDS011;48626;51.678;5.806;2023-09-18T06:16:46;4.90;;;2.50;;
62572;SDS011;48626;51.678;5.806;2023-09-18T06:19:12;5.25;;;2.67;;
62572;SDS011;48626;51.678;5.806;2023-09-18T06:21:38;9.65;;;2.47;;
62572;SDS011;48626;51.678;5.806;2023-09-18T06:24:04;4.00;;;2.30;;
62572;SDS011;48626;51.678;5.806;2023-09-18T06:26:30;3.22;;;2.03;;
62572;SDS011;48626;51.678;5.806;2023-09-18T06:28:55;3.35;;;2.20;;
62572;SDS011;48626;51.678;5.806;2023-09-18T06:31:21;2.83;;;2.20;;
62572;SDS011;48626;51.678;5.806;2023-09-18T06:33:48;4.10;;;2.05;;
62572;SDS011;48626;51.678;5.806;2023-09-18T06:36:14;2.95;;;1.98;;
62572;SDS011;48626;51.678;5.806;2023-09-18T06:38:40;4.03;;;2.13;;
62572;SDS011;48626;51.678;5.806;2023-09-18T06:41:05;2.35;;;2.00;;
62572;SDS011;48626;51.678;5.806;2023-09-18T06:43:31;2.80;;;1.85;;
62572;SDS011;48626;51.678;5.806;2023-09-18T06:45:57;5.22;;;2.10;;
62572;SDS011;48626;51.678;5.806;2023-09-18T06:48:25;2.55;;;1.90;;
62572;SDS011;48626;51.678;5.806;2023-09-18T06:50:51;3.83;;;2.10;;
62572;SDS011;48626;51.678;5.806;2023-09-18T06:53:17;6.38;;;2.38;;
62572;SDS011;48626;51.678;5.806;2023-09-18T06:55:42;5.32;;;2.58;;
62572;SDS011;48626;51.678;5.806;2023-09-18T06:58:08;4.97;;;2.00;;
62572;SDS011;48626;51.678;5.806;2023-09-18T07:00:34;2.42;;;1.52;;
62572;SDS011;48626;51.678;5.806;2023-09-18T07:03:00;3.88;;;1.95;;
62572;SDS011;48626;51.678;5.806;2023-09-18T07:05:25;2.15;;;1.70;;
62572;SDS011;48626;51.678;5.806;2023-09-18T07:07:51;6.45;;;2.20;;
62572;SDS011;48626;51.678;5.806;2023-09-18T07:10:17;2.05;;;1.50;;
62572;SDS011;48626;51.678;5.806;2023-09-18T07:12:44;2.92;;;1.90;;
62572;SDS011;48626;51.678;5.806;2023-09-18T07:15:09;2.45;;;1.75;;
62572;SDS011;48626;51.678;5.806;2023-09-18T07:17:35;3.25;;;2.03;;
62572;SDS011;48626;51.678;5.806;2023-09-18T07:20:01;3.30;;;2.03;;
62572;SDS011;48626;51.678;5.806;2023-09-18T07:22:33;2.55;;;1.50;;
62572;SDS011;48626;51.678;5.806;2023-09-18T07:24:58;5.18;;;2.03;;
62572;SDS011;48626;51.678;5.806;2023-09-18T07:27:24;4.55;;;1.80;;
62572;SDS011;48626;51.678;5.806;2023-09-18T07:29:49;3.55;;;1.92;;
62572;SDS011;48626;51.678;5.806;2023-09-18T07:32:15;4.57;;;2.08;;
62572;SDS011;48626;51.678;5.806;2023-09-18T07:34:41;2.90;;;2.00;;
62572;SDS011;48626;51.678;5.806;2023-09-18T07:37:07;1.98;;;1.60;;
62572;SDS011;48626;51.678;5.806;2023-09-18T07:39:33;3.78;;;1.98;;
62572;SDS011;48626;51.678;5.806;2023-09-18T07:41:58;3.25;;;1.80;;
62572;SDS011;48626;51.678;5.806;2023-09-18T07:44:24;4.50;;;1.73;;
62572;SDS011;48626;51.678;5.806;2023-09-18T07:46:50;6.70;;;2.15;;
62572;SDS011;48626;51.678;5.806;2023-09-18T07:49:15;1.98;;;1.73;;
62572;SDS011;48626;51.678;5.806;2023-09-18T07:51:41;3.05;;;1.90;;
62572;SDS011;48626;51.678;5.806;2023-09-18T07:54:08;5.93;;;1.80;;
62572;SDS011;48626;51.678;5.806;2023-09-18T07:56:34;2.78;;;1.80;;
62572;SDS011;48626;51.678;5.806;2023-09-18T07:59:01;3.25;;;2.08;;
62572;SDS011;48626;51.678;5.806;2023-09-18T08:01:27;3.28;;;1.90;;
62572;SDS011;48626;51.678;5.806;2023-09-18T08:03:53;2.65;;;1.70;;
62572;SDS011;48626;51.678;5.806;2023-09-18T08:06:19;11.93;;;2.90;;
62572;SDS011;48626;51.678;5.806;2023-09-18T08:08:45;8.60;;;2.40;;
62572;SDS011;48626;51.678;5.806;2023-09-18T08:11:10;3.60;;;1.90;;
62572;SDS011;48626;51.678;5.806;2023-09-18T08:13:36;5.57;;;1.98;;
62572;SDS011;48626;51.678;5.806;2023-09-18T08:16:03;3.08;;;1.92;;
62572;SDS011;48626;51.678;5.806;2023-09-18T08:18:31;2.65;;;1.60;;
62572;SDS011;48626;51.678;5.806;2023-09-18T08:20:57;1.77;;;1.50;;
62572;SDS011;48626;51.678;5.806;2023-09-18T08:23:23;5.78;;;2.03;;
62572;SDS011;48626;51.678;5.806;2023-09-18T08:25:49;3.58;;;2.00;;
62572;SDS011;48626;51.678;5.806;2023-09-18T08:28:16;2.25;;;1.58;;
62572;SDS011;48626;51.678;5.806;2023-09-18T08:30:42;6.35;;;1.90;;
62572;SDS011;48626;51.678;5.806;2023-09-18T08:35:40;3.88;;;1.70;;
62572;SDS011;48626;51.678;5.806;2023-09-18T08:38:06;2.20;;;1.67;;
62572;SDS011;48626;51.678;5.806;2023-09-18T08:40:32;6.75;;;1.92;;
62572;SDS011;48626;51.678;5.806;2023-09-18T08:42:59;2.92;;;1.70;;
62572;SDS011;48626;51.678;5.806;2023-09-18T08:45:35;3.38;;;1.90;;
62572;SDS011;48626;51.678;5.806;2023-09-18T08:48:26;3.42;;;1.83;;
62572;SDS011;48626;51.678;5.806;2023-09-18T08:51:03;3.88;;;2.08;;
62572;SDS011;48626;51.678;5.806;2023-09-18T08:53:33;2.30;;;1.77;;
62572;SDS011;48626;51.678;5.806;2023-09-18T08:56:00;3.25;;;1.73;;
62572;SDS011;48626;51.678;5.806;2023-09-18T08:58:32;2.65;;;1.92;;
62572;SDS011;48626;51.678;5.806;2023-09-18T09:01:00;3.25;;;2.10;;
62572;SDS011;48626;51.678;5.806;2023-09-18T09:03:28;3.25;;;2.00;;
62572;SDS011;48626;51.678;5.806;2023-09-18T09:05:55;10.90;;;1.92;;
62572;SDS011;48626;51.678;5.806;2023-09-18T09:08:21;3.03;;;2.00;;
62572;SDS011;48626;51.678;5.806;2023-09-18T09:10:46;3.22;;;1.70;;
62572;SDS011;48626;51.678;5.806;2023-09-18T09:13:13;2.88;;;2.00;;
62572;SDS011;48626;51.678;5.806;2023-09-18T09:15:45;5.30;;;2.10;;
62572;SDS011;48626;51.678;5.806;2023-09-18T09:18:12;5.65;;;2.00;;
62572;SDS011;48626;51.678;5.806;2023-09-18T09:20:40;6.72;;;1.80;;
62572;SDS011;48626;51.678;5.806;2023-09-18T09:23:08;2.80;;;1.90;;
62572;SDS011;48626;51.678;5.806;2023-09-18T09:25:35;5.03;;;2.08;;
62572;SDS011;48626;51.678;5.806;2023-09-18T09:28:05;2.95;;;1.58;;
62572;SDS011;48626;51.678;5.806;2023-09-18T09:30:33;3.28;;;1.77;;
62572;SDS011;48626;51.678;5.806;2023-09-18T09:33:00;5.30;;;2.13;;
62572;SDS011;48626;51.678;5.806;2023-09-18T09:35:29;5.43;;;2.00;;
62572;SDS011;48626;51.678;5.806;2023-09-18T09:37:57;4.30;;;2.10;;
62572;SDS011;48626;51.678;5.806;2023-09-18T09:40:26;6.10;;;2.08;;
62572;SDS011;48626;51.678;5.806;2023-09-18T09:42:54;5.93;;;2.22;;
62572;SDS011;48626;51.678;5.806;2023-09-18T09:45:30;3.15;;;2.05;;
62572;SDS011;48626;51.678;5.806;2023-09-18T09:48:00;5.22;;;1.98;;
62572;SDS011;48626;51.678;5.806;2023-09-18T09:50:27;2.72;;;2.10;;
62572;SDS011;48626;51.678;5.806;2023-09-18T09:52:54;3.40;;;2.03;;
62572;SDS011;48626;51.678;5.806;2023-09-18T09:55:27;6.13;;;2.55;;
62572;SDS011;48626;51.678;5.806;2023-09-18T09:57:56;5.13;;;2.03;;
62572;SDS011;48626;51.678;5.806;2023-09-18T10:03:00;4.53;;;2.42;;
62572;SDS011;48626;51.678;5.806;2023-09-18T10:05:29;6.85;;;2.53;;
62572;SDS011;48626;51.678;5.806;2023-09-18T10:07:59;8.50;;;2.40;;
62572;SDS011;48626;51.678;5.806;2023-09-18T10:10:49;4.57;;;2.60;;
62572;SDS011;48626;51.678;5.806;2023-09-18T10:13:17;4.37;;;2.60;;
62572;SDS011;48626;51.678;5.806;2023-09-18T10:15:46;5.07;;;2.45;;
62572;SDS011;48626;51.678;5.806;2023-09-18T10:18:30;4.50;;;2.72;;
62572;SDS011;48626;51.678;5.806;2023-09-18T10:21:14;8.20;;;2.47;;
62572;SDS011;48626;51.678;5.806;2023-09-18T10:26:47;3.93;;;2.43;;
62572;SDS011;48626;51.678;5.806;2023-09-18T10:29:20;3.03;;;2.10;;
62572;SDS011;48626;51.678;5.806;2023-09-18T10:31:48;3.15;;;2.13;;
62572;SDS011;48626;51.678;5.806;2023-09-18T10:34:15;6.32;;;2.47;;
62572;SDS011;48626;51.678;5.806;2023-09-18T10:36:42;6.15;;;2.33;;
62572;SDS011;48626;51.678;5.806;2023-09-18T10:39:09;3.50;;;2.15;;
62572;SDS011;48626;51.678;5.806;2023-09-18T10:41:37;7.82;;;2.35;;
62572;SDS011;48626;51.678;5.806;2023-09-18T10:44:04;4.68;;;2.50;;
62572;SDS011;48626;51.678;5.806;2023-09-18T10:46:31;3.78;;;2.45;;
62572;SDS011;48626;51.678;5.806;2023-09-18T10:48:58;6.85;;;2.53;;
62572;SDS011;48626;51.678;5.806;2023-09-18T10:51:24;3.17;;;2.28;;
62572;SDS011;48626;51.678;5.806;2023-09-18T10:53:50;7.03;;;2.40;;
62572;SDS011;48626;51.678;5.806;2023-09-18T10:56:19;3.47;;;2.40;;
62572;SDS011;48626;51.678;5.806;2023-09-18T10:58:45;7.50;;;2.17;;
62572;SDS011;48626;51.678;5.806;2023-09-18T11:01:12;9.60;;;2.63;;
62572;SDS011;48626;51.678;5.806;2023-09-18T11:03:38;4.60;;;2.38;;
62572;SDS011;48626;51.678;5.806;2023-09-18T11:06:05;6.50;;;2.42;;
62572;SDS011;48626;51.678;5.806;2023-09-18T11:13:50;7.80;;;2.63;;
62572;SDS011;48626;51.678;5.806;2023-09-18T11:18:51;5.15;;;2.72;;
62572;SDS011;48626;51.678;5.806;2023-09-18T11:21:21;5.30;;;2.80;;
62572;SDS011;48626;51.678;5.806;2023-09-18T11:24:03;4.18;;;2.78;;
62572;SDS011;48626;51.678;5.806;2023-09-18T11:26:33;7.32;;;2.85;;
62572;SDS011;48626;51.678;5.806;2023-09-18T11:29:09;10.77;;;2.90;;
62572;SDS011;48626;51.678;5.806;2023-09-18T11:34:28;8.32;;;2.78;;
62572;SDS011;48626;51.678;5.806;2023-09-18T11:37:02;4.10;;;2.53;;
62572;SDS011;48626;51.678;5.806;2023-09-18T11:39:44;5.35;;;2.60;;
62572;SDS011;48626;51.678;5.806;2023-09-18T11:42:18;4.70;;;2.53;;
62572;SDS011;48626;51.678;5.806;2023-09-18T11:44:45;7.43;;;2.63;;
62572;SDS011;48626;51.678;5.806;2023-09-18T11:47:23;7.97;;;2.35;;
62572;SDS011;48626;51.678;5.806;2023-09-18T11:52:18;2.30;;;1.90;;
62572;SDS011;48626;51.678;5.806;2023-09-18T11:54:44;6.60;;;2.45;;
62572;SDS011;48626;51.678;5.806;2023-09-18T11:57:14;5.75;;;2.30;;
62572;SDS011;48626;51.678;5.806;2023-09-18T11:59:41;3.58;;;2.50;;
62572;SDS011;48626;51.678;5.806;2023-09-18T12:02:25;6.68;;;2.70;;
62572;SDS011;48626;51.678;5.806;2023-09-18T12:05:04;4.57;;;2.30;;
62572;SDS011;48626;51.678;5.806;2023-09-18T12:07:31;4.97;;;2.30;;
62572;SDS011;48626;51.678;5.806;2023-09-18T12:09:57;5.30;;;2.50;;
62572;SDS011;48626;51.678;5.806;2023-09-18T12:12:23;5.40;;;1.88;;
62572;SDS011;48626;51.678;5.806;2023-09-18T12:14:51;2.95;;;2.05;;
62572;SDS011;48626;51.678;5.806;2023-09-18T12:17:17;6.07;;;2.15;;
62572;SDS011;48626;51.678;5.806;2023-09-18T12:19:55;3.80;;;2.25;;
62572;SDS011;48626;51.678;5.806;2023-09-18T12:22:24;7.10;;;2.40;;
62572;SDS011;48626;51.678;5.806;2023-09-18T12:24:51;7.00;;;2.45;;
62572;SDS011;48626;51.678;5.806;2023-09-18T12:27:17;3.33;;;2.10;;
62572;SDS011;48626;51.678;5.806;2023-09-18T12:29:43;4.80;;;2.20;;
62572;SDS011;48626;51.678;5.806;2023-09-18T12:32:09;7.00;;;2.55;;
62572;SDS011;48626;51.678;5.806;2023-09-18T12:37:06;3.88;;;2.25;;
62572;SDS011;48626;51.678;5.806;2023-09-18T12:39:34;4.13;;;2.30;;
62572;SDS011;48626;51.678;5.806;2023-09-18T12:42:00;9.70;;;2.50;;
62572;SDS011;48626;51.678;5.806;2023-09-18T12:44:26;3.20;;;2.30;;
62572;SDS011;48626;51.678;5.806;2023-09-18T12:46:52;3.08;;;2.10;;
62572;SDS011;48626;51.678;5.806;2023-09-18T12:49:21;3.92;;;2.45;;
62572;SDS011;48626;51.678;5.806;2023-09-18T12:51:56;3.90;;;2.60;;
62572;SDS011;48626;51.678;5.806;2023-09-18T12:57:08;5.45;;;2.50;;
62572;SDS011;48626;51.678;5.806;2023-09-18T12:59:35;6.07;;;2.30;;
62572;SDS011;48626;51.678;5.806;2023-09-18T13:02:03;6.57;;;1.92;;
62572;SDS011;48626;51.678;5.806;2023-09-18T13:04:33;3.55;;;2.20;;
62572;SDS011;48626;51.678;5.806;2023-09-18T13:07:11;2.92;;;2.05;;
62572;SDS011;48626;51.678;5.806;2023-09-18T13:09:38;4.15;;;2.30;;
62572;SDS011;48626;51.678;5.806;2023-09-18T13:12:04;4.55;;;2.38;;
62572;SDS011;48626;51.678;5.806;2023-09-18T13:14:56;4.95;;;2.20;;
62572;SDS011;48626;51.678;5.806;2023-09-18T13:17:24;4.15;;;2.35;;
62572;SDS011;48626;51.678;5.806;2023-09-18T13:19:50;6.30;;;2.50;;
62572;SDS011;48626;51.678;5.806;2023-09-18T13:22:25;4.45;;;2.30;;
62572;SDS011;48626;51.678;5.806;2023-09-18T13:24:57;3.53;;;2.03;;
62572;SDS011;48626;51.678;5.806;2023-09-18T13:27:24;5.95;;;2.13;;
62572;SDS011;48626;51.678;5.806;2023-09-18T13:29:49;4.97;;;2.20;;
62572;SDS011;48626;51.678;5.806;2023-09-18T13:32:20;2.75;;;1.90;;
62572;SDS011;48626;51.678;5.806;2023-09-18T13:34:49;5.80;;;2.33;;
62572;SDS011;48626;51.678;5.806;2023-09-18T13:37:34;12.15;;;2.35;;
62572;SDS011;48626;51.678;5.806;2023-09-18T13:40:00;4.03;;;2.30;;
62572;SDS011;48626;51.678;5.806;2023-09-18T13:42:28;3.58;;;1.98;;
62572;SDS011;48626;51.678;5.806;2023-09-18T13:47:25;8.60;;;2.00;;
62572;SDS011;48626;51.678;5.806;2023-09-18T13:49:52;5.07;;;2.00;;
62572;SDS011;48626;51.678;5.806;2023-09-18T13:52:23;2.70;;;1.90;;
62572;SDS011;48626;51.678;5.806;2023-09-18T13:54:53;5.63;;;2.10;;
62572;SDS011;48626;51.678;5.806;2023-09-18T13:57:20;3.38;;;2.20;;
62572;SDS011;48626;51.678;5.806;2023-09-18T13:59:47;4.03;;;2.40;;
62572;SDS011;48626;51.678;5.806;2023-09-18T14:02:13;4.65;;;2.40;;
62572;SDS011;48626;51.678;5.806;2023-09-18T14:04:40;2.08;;;1.77;;
62572;SDS011;48626;51.678;5.806;2023-09-18T14:07:07;3.92;;;2.13;;
62572;SDS011;48626;51.678;5.806;2023-09-18T14:09:34;5.82;;;2.15;;
62572;SDS011;48626;51.678;5.806;2023-09-18T14:12:00;4.90;;;2.30;;
62572;SDS011;48626;51.678;5.806;2023-09-18T14:14:32;8.57;;;2.10;;
62572;SDS011;48626;51.678;5.806;2023-09-18T14:19:28;3.00;;;1.95;;
62572;SDS011;48626;51.678;5.806;2023-09-18T14:21:57;4.95;;;2.35;;
62572;SDS011;48626;51.678;5.806;2023-09-18T14:24:28;4.68;;;2.30;;
62572;SDS011;48626;51.678;5.806;2023-09-18T14:26:59;3.90;;;2.15;;
62572;SDS011;48626;51.678;5.806;2023-09-18T14:29:25;3.95;;;2.10;;
62572;SDS011;48626;51.678;5.806;2023-09-18T14:31:57;4.45;;;2.40;;
62572;SDS011;48626;51.678;5.806;2023-09-18T14:34:23;4.82;;;1.98;;
62572;SDS011;48626;51.678;5.806;2023-09-18T14:36:48;3.40;;;1.80;;
62572;SDS011;48626;51.678;5.806;2023-09-18T14:39:14;2.65;;;2.00;;
62572;SDS011;48626;51.678;5.806;2023-09-18T14:41:40;4.55;;;2.05;;
62572;SDS011;48626;51.678;5.806;2023-09-18T14:44:07;2.45;;;1.90;;
62572;SDS011;48626;51.678;5.806;2023-09-18T14:46:34;2.60;;;1.92;;
62572;SDS011;48626;51.678;5.806;2023-09-18T14:49:03;5.45;;;2.10;;
62572;SDS011;48626;51.678;5.806;2023-09-18T14:51:29;4.20;;;2.05;;
62572;SDS011;48626;51.678;5.806;2023-09-18T14:53:55;3.92;;;2.15;;
62572;SDS011;48626;51.678;5.806;2023-09-18T14:56:22;6.40;;;2.60;;
62572;SDS011;48626;51.678;5.806;2023-09-18T14:58:48;6.30;;;3.00;;
62572;SDS011;48626;51.678;5.806;2023-09-18T15:01:15;3.22;;;2.22;;
62572;SDS011;48626;51.678;5.806;2023-09-18T15:03:40;3.20;;;2.20;;
62572;SDS011;48626;51.678;5.806;2023-09-18T15:06:06;2.40;;;2.00;;
62572;SDS011;48626;51.678;5.806;2023-09-18T15:08:35;4.03;;;2.10;;
62572;SDS011;48626;51.678;5.806;2023-09-18T15:11:01;2.85;;;2.00;;
62572;SDS011;48626;51.678;5.806;2023-09-18T15:13:29;3.33;;;1.98;;
62572;SDS011;48626;51.678;5.806;2023-09-18T15:15:55;3.88;;;2.00;;
62572;SDS011;48626;51.678;5.806;2023-09-18T15:18:21;4.18;;;1.92;;
62572;SDS011;48626;51.678;5.806;2023-09-18T15:20:46;4.70;;;1.85;;
62572;SDS011;48626;51.678;5.806;2023-09-18T15:23:13;3.55;;;1.90;;
62572;SDS011;48626;51.678;5.806;2023-09-18T15:25:39;4.85;;;2.17;;